createdAt,value
2023-12-15T00:00:50.081Z,5.20
2023-12-15T00:03:53.317Z,4.75
2023-12-15T00:06:56.381Z,5.65
2023-12-15T00:09:59.137Z,4.85
2023-12-15T00:13:03.372Z,5.32
2023-12-15T00:16:07.259Z,4.63
2023-12-15T00:19:10.306Z,4.80
2023-12-15T00:22:13.382Z,4.88
2023-12-15T00:25:16.344Z,4.65
2023-12-15T00:28:20.652Z,4.78
2023-12-15T00:31:23.366Z,4.33
2023-12-15T00:34:26.223Z,4.75
2023-12-15T00:37:29.732Z,5.07
2023-12-15T00:40:32.387Z,4.35
2023-12-15T00:43:36.808Z,4.93
2023-12-15T00:46:39.519Z,4.50
2023-12-15T00:49:42.449Z,4.63
2023-12-15T00:52:45.563Z,5.03
2023-12-15T00:55:48.288Z,4.60
2023-12-15T00:58:52.578Z,5.30
2023-12-15T01:01:55.409Z,4.43
2023-12-15T01:04:58.367Z,4.30
2023-12-15T01:08:01.178Z,4.72
2023-12-15T01:11:04.384Z,4.67
2023-12-15T01:14:08.550Z,5.30
2023-12-15T01:17:11.700Z,4.47
2023-12-15T01:20:15.463Z,5.03
2023-12-15T01:23:18.297Z,4.60
2023-12-15T01:26:21.216Z,4.90
2023-12-15T01:29:25.482Z,5.18
2023-12-15T01:32:28.401Z,4.65
2023-12-15T01:35:31.320Z,5.30
2023-12-15T01:38:34.109Z,4.90
2023-12-15T01:41:37.060Z,4.30
2023-12-15T01:44:41.787Z,4.20
2023-12-15T01:47:45.630Z,4.78
2023-12-15T01:50:48.526Z,4.77
2023-12-15T01:53:51.251Z,4.67
2023-12-15T01:56:54.200Z,4.97
2023-12-15T01:59:58.423Z,5.00
2023-12-15T02:03:01.179Z,5.20
2023-12-15T02:06:04.194Z,4.83
2023-12-15T02:09:06.938Z,4.60
2023-12-15T02:12:10.564Z,4.90
2023-12-15T02:15:15.279Z,4.75
2023-12-15T02:18:18.219Z,4.43
2023-12-15T02:21:21.175Z,4.47
2023-12-15T02:24:25.523Z,4.93
2023-12-15T02:27:28.693Z,4.22
2023-12-15T02:30:32.026Z,5.15
2023-12-15T02:33:34.952Z,4.35
2023-12-15T02:36:38.343Z,4.27
2023-12-15T02:39:42.449Z,4.40
2023-12-15T02:42:45.344Z,4.53
2023-12-15T02:45:48.367Z,4.43
2023-12-15T02:48:51.298Z,4.70
2023-12-15T02:51:54.324Z,4.87
2023-12-15T02:54:58.417Z,4.90
2023-12-15T02:58:01.587Z,4.60
2023-12-15T03:01:05.106Z,4.80
2023-12-15T03:04:07.986Z,4.75
2023-12-15T03:07:11.447Z,4.73
2023-12-15T03:10:19.232Z,4.43
2023-12-15T03:13:22.131Z,4.55
2023-12-15T03:16:25.491Z,5.13
2023-12-15T03:19:28.440Z,5.30
2023-12-15T03:22:31.285Z,5.30
2023-12-15T03:25:35.485Z,5.17
2023-12-15T03:28:40.832Z,4.70
2023-12-15T03:31:43.571Z,5.35
2023-12-15T03:34:46.423Z,4.35
2023-12-15T03:37:49.286Z,4.80
2023-12-15T03:40:53.434Z,5.30
2023-12-15T03:43:56.364Z,4.75
2023-12-15T03:46:59.279Z,4.80
2023-12-15T03:50:04.754Z,4.32
2023-12-15T03:53:07.810Z,4.63
2023-12-15T03:56:12.366Z,4.13
2023-12-15T03:59:15.303Z,4.28
2023-12-15T04:02:20.299Z,4.63
2023-12-15T04:05:23.471Z,3.83
2023-12-15T04:08:26.420Z,4.03
2023-12-15T04:11:31.207Z,4.47
2023-12-15T04:14:34.997Z,4.47
2023-12-15T04:17:38.236Z,4.40
2023-12-15T04:20:41.367Z,3.60
2023-12-15T04:23:44.186Z,4.30
2023-12-15T04:26:48.555Z,4.00
2023-12-15T04:29:51.396Z,4.32
2023-12-15T04:32:54.141Z,4.07
2023-12-15T04:35:57.014Z,3.90
2023-12-15T04:38:59.870Z,3.93
2023-12-15T04:42:03.986Z,3.60
2023-12-15T04:45:08.811Z,3.72
2023-12-15T04:48:11.721Z,3.25
2023-12-15T04:51:15.645Z,3.97
2023-12-15T04:54:18.710Z,4.10
2023-12-15T04:57:22.785Z,4.13
2023-12-15T05:00:26.044Z,3.72
2023-12-15T05:03:29.128Z,4.15
2023-12-15T05:06:32.912Z,3.38
2023-12-15T05:09:36.207Z,3.17
2023-12-15T05:12:40.736Z,3.50
2023-12-15T05:15:43.668Z,3.67
2023-12-15T05:18:47.094Z,3.85
2023-12-15T05:21:50.270Z,3.65
2023-12-15T05:24:53.574Z,4.10
2023-12-15T05:27:58.105Z,4.07
2023-12-15T05:31:01.105Z,3.88
2023-12-15T05:34:04.272Z,3.70
2023-12-15T05:37:07.902Z,3.45
2023-12-15T05:40:13.306Z,3.87
2023-12-15T05:43:18.064Z,4.05
2023-12-15T05:46:21.716Z,3.60
2023-12-15T05:49:25.472Z,3.80
2023-12-15T05:52:28.830Z,4.00
2023-12-15T05:55:34.489Z,4.40
2023-12-15T05:58:38.611Z,3.55
2023-12-15T06:01:42.094Z,4.57
2023-12-15T06:04:44.994Z,3.80
2023-12-15T06:07:49.703Z,4.68
2023-12-15T06:10:52.937Z,4.43
2023-12-15T06:13:58.113Z,4.32
2023-12-15T06:17:02.304Z,5.22
2023-12-15T06:20:08.481Z,4.90
2023-12-15T06:23:11.562Z,5.20
2023-12-15T06:26:19.344Z,5.47
2023-12-15T06:29:23.562Z,4.85
2023-12-15T06:32:26.697Z,5.18
2023-12-15T06:35:29.651Z,5.63
2023-12-15T06:38:32.487Z,6.65
2023-12-15T06:41:35.748Z,7.20
2023-12-15T06:44:40.980Z,5.28
2023-12-15T06:47:44.178Z,6.25
2023-12-15T06:50:47.306Z,7.43
2023-12-15T06:53:50.126Z,6.20
2023-12-15T06:56:52.995Z,6.60
2023-12-15T06:59:57.699Z,6.57
2023-12-15T07:03:00.581Z,6.40
2023-12-15T07:06:03.910Z,7.53
2023-12-15T07:09:06.684Z,6.85
2023-12-15T07:12:11.040Z,7.03
2023-12-15T07:15:16.508Z,6.70
2023-12-15T07:18:19.529Z,6.50
2023-12-15T07:21:22.625Z,6.95
2023-12-15T07:24:26.752Z,7.32
2023-12-15T07:27:29.635Z,7.43
2023-12-15T07:30:33.927Z,7.20
2023-12-15T07:33:40.283Z,8.38
2023-12-15T07:36:44.039Z,8.30
2023-12-15T07:39:49.505Z,7.95
2023-12-15T07:42:52.200Z,8.07
2023-12-15T07:45:56.308Z,8.05
2023-12-15T07:48:59.603Z,8.18
2023-12-15T07:52:02.855Z,7.93
2023-12-15T07:55:06.388Z,8.02
2023-12-15T07:58:11.309Z,7.70
2023-12-15T08:01:15.431Z,8.95
2023-12-15T08:04:22.459Z,7.47
2023-12-15T08:07:25.210Z,8.88
2023-12-15T08:10:30.693Z,9.23
2023-12-15T08:13:34.060Z,9.17
2023-12-15T08:16:41.105Z,9.93
2023-12-15T08:19:45.918Z,9.60
2023-12-15T08:22:48.770Z,9.73
2023-12-15T08:25:51.524Z,10.10
2023-12-15T08:28:55.485Z,10.97
2023-12-15T08:32:00.137Z,9.15
2023-12-15T08:35:03.702Z,9.50
2023-12-15T08:38:06.667Z,9.90
2023-12-15T08:41:09.942Z,9.65
2023-12-15T08:44:20.025Z,10.10
2023-12-15T08:47:33.123Z,9.57
2023-12-15T08:50:36.192Z,10.23
2023-12-15T08:53:40.425Z,9.35
2023-12-15T08:56:43.320Z,10.38
2023-12-15T08:59:48.243Z,10.40
2023-12-15T09:02:54.678Z,10.60
2023-12-15T09:06:17.740Z,10.02
2023-12-15T09:09:25.342Z,9.40
2023-12-15T09:12:28.278Z,10.20
2023-12-15T09:15:34.841Z,9.60
2023-12-15T09:18:39.942Z,8.75
2023-12-15T09:21:45.148Z,8.98
2023-12-15T09:24:48.130Z,9.98
2023-12-15T09:27:50.847Z,10.90
2023-12-15T09:30:56.910Z,10.70
2023-12-15T09:34:04.074Z,10.13
2023-12-15T09:37:09.100Z,9.07
2023-12-15T09:40:12.857Z,9.63
2023-12-15T09:43:15.682Z,10.40
2023-12-15T09:46:18.740Z,10.77
2023-12-15T09:49:25.913Z,9.85
2023-12-15T09:52:29.162Z,9.35
2023-12-15T09:55:38.437Z,10.25
2023-12-15T09:58:52.347Z,9.65
2023-12-15T10:02:00.011Z,9.00
2023-12-15T10:05:04.550Z,9.60
2023-12-15T10:08:09.099Z,9.50
2023-12-15T10:11:14.819Z,9.20
2023-12-15T10:14:20.858Z,9.20
2023-12-15T10:17:25.818Z,8.80
2023-12-15T10:20:31.418Z,9.05
2023-12-15T10:23:35.962Z,10.00
2023-12-15T10:26:40.340Z,9.10
2023-12-15T10:29:44.823Z,9.75
2023-12-15T10:32:47.911Z,9.20
2023-12-15T10:35:52.485Z,8.88
2023-12-15T10:39:00.094Z,9.13
2023-12-15T10:42:07.293Z,9.20
2023-12-15T10:45:11.233Z,8.38
2023-12-15T10:48:17.687Z,9.07
2023-12-15T10:51:32.078Z,8.90
2023-12-15T10:54:38.352Z,9.38
2023-12-15T10:57:46.533Z,8.80
2023-12-15T11:00:52.482Z,10.00
2023-12-15T11:03:55.458Z,10.37
2023-12-15T11:07:03.336Z,9.80
2023-12-15T11:10:07.560Z,8.23
2023-12-15T11:13:44.910Z,8.68
2023-12-15T11:16:47.984Z,8.10
2023-12-15T11:20:01.374Z,9.37
2023-12-15T11:23:10.980Z,8.73
2023-12-15T11:26:21.926Z,10.15
2023-12-15T11:29:24.962Z,8.93
2023-12-15T11:32:31.831Z,8.25
2023-12-15T11:35:34.981Z,9.03
2023-12-15T11:38:42.363Z,8.70
2023-12-15T11:41:48.793Z,9.63
2023-12-15T11:44:51.763Z,8.75
2023-12-15T11:47:55.735Z,8.52
2023-12-15T11:50:59.001Z,8.23
2023-12-15T11:54:12.083Z,8.45
2023-12-15T11:57:23.228Z,9.88
2023-12-15T12:00:27.390Z,10.13
2023-12-15T12:03:33.480Z,9.55
2023-12-15T12:06:38.454Z,10.07
2023-12-15T12:09:42.802Z,9.30
2023-12-15T12:12:45.699Z,8.65
2023-12-15T12:15:53.580Z,9.60
2023-12-15T12:18:57.981Z,8.98
2023-12-15T12:22:00.839Z,10.00
2023-12-15T12:25:08.282Z,9.13
2023-12-15T12:28:11.035Z,9.40
2023-12-15T12:31:16.146Z,8.90
2023-12-15T12:34:19.165Z,8.98
2023-12-15T12:37:22.078Z,9.57
2023-12-15T12:40:30.191Z,8.43
2023-12-15T12:43:32.918Z,9.10
2023-12-15T12:46:36.072Z,10.30
2023-12-15T12:49:49.575Z,8.98
2023-12-15T12:52:57.548Z,8.87
2023-12-15T12:56:02.001Z,8.73
2023-12-15T12:59:09.512Z,9.77
2023-12-15T13:02:20.534Z,9.23
2023-12-15T13:05:24.971Z,8.68
2023-12-15T13:08:27.978Z,9.13
2023-12-15T13:11:32.195Z,8.90
2023-12-15T13:14:35.191Z,9.57
2023-12-15T13:17:38.030Z,9.18
2023-12-15T13:20:41.248Z,9.65
2023-12-15T13:23:44.303Z,9.47
2023-12-15T13:26:49.734Z,8.73
2023-12-15T13:29:55.245Z,9.25
2023-12-15T13:32:58.620Z,9.60
2023-12-15T13:36:10.796Z,11.55
2023-12-15T13:39:18.691Z,10.07
2023-12-15T13:42:31.650Z,9.45
2023-12-15T13:45:41.556Z,9.20
2023-12-15T13:48:48.450Z,10.98
2023-12-15T13:51:51.226Z,10.00
2023-12-15T13:54:55.870Z,9.93
2023-12-15T13:58:02.678Z,9.07
2023-12-15T14:01:05.853Z,9.93
2023-12-15T14:04:14.583Z,9.73
2023-12-15T14:07:17.630Z,9.00
2023-12-15T14:10:20.381Z,9.03
2023-12-15T14:13:24.735Z,9.18
2023-12-15T14:16:40.739Z,10.05
2023-12-15T14:19:49.184Z,9.18
2023-12-15T14:22:55.570Z,10.05
2023-12-15T14:25:58.309Z,8.63
2023-12-15T14:29:05.023Z,9.65
2023-12-15T14:32:08.598Z,9.80
2023-12-15T14:35:14.306Z,9.98
2023-12-15T14:38:19.145Z,10.35
2023-12-15T14:41:24.592Z,8.87
2023-12-15T14:44:28.779Z,8.43
2023-12-15T14:47:31.651Z,9.63
2023-12-15T14:50:38.601Z,8.68
2023-12-15T14:53:41.581Z,9.25
2023-12-15T14:56:44.712Z,8.50
2023-12-15T14:59:49.646Z,9.57
2023-12-15T15:02:52.631Z,9.93
2023-12-15T15:05:55.731Z,9.57
2023-12-15T15:08:58.552Z,10.18
2023-12-15T15:12:02.628Z,9.77
2023-12-15T15:15:09.680Z,9.43
2023-12-15T15:18:14.544Z,9.27
2023-12-15T15:21:18.046Z,10.50
2023-12-15T15:24:22.130Z,9.65
2023-12-15T15:27:30.880Z,9.73
2023-12-15T15:30:37.181Z,8.90
2023-12-15T15:33:40.066Z,10.13
2023-12-15T15:36:43.145Z,10.82
2023-12-15T15:39:45.972Z,10.82
2023-12-15T15:42:55.293Z,8.87
2023-12-15T15:46:01.938Z,11.10
2023-12-15T15:49:04.984Z,11.23
2023-12-15T15:52:08.310Z,9.38
2023-12-15T15:55:14.125Z,10.07
2023-12-15T15:58:17.035Z,10.60
2023-12-15T16:01:35.337Z,10.40
2023-12-15T16:04:43.661Z,10.65
2023-12-15T16:07:46.393Z,11.52
2023-12-15T16:10:53.295Z,10.45
2023-12-15T16:14:02.498Z,9.63
2023-12-15T16:17:15.381Z,10.68
2023-12-15T16:20:23.282Z,11.10
2023-12-15T16:23:28.100Z,10.45
2023-12-15T16:26:34.314Z,10.52
2023-12-15T16:29:39.461Z,10.37
2023-12-15T16:32:44.239Z,10.55
2023-12-15T16:35:48.375Z,11.13
2023-12-15T16:38:52.064Z,9.98
2023-12-15T16:42:03.557Z,10.32
2023-12-15T16:45:09.469Z,10.30
2023-12-15T16:48:18.275Z,10.23
2023-12-15T16:51:23.721Z,9.70
2023-12-15T16:54:26.610Z,10.85
2023-12-15T16:57:29.362Z,9.40
2023-12-15T17:00:32.262Z,9.20
2023-12-15T17:03:38.529Z,9.77
2023-12-15T17:06:42.611Z,10.52
2023-12-15T17:09:47.452Z,9.65
2023-12-15T17:12:53.641Z,10.02
2023-12-15T17:15:58.263Z,9.87
2023-12-15T17:19:02.764Z,9.68
2023-12-15T17:22:05.566Z,9.82
2023-12-15T17:25:12.920Z,10.13
2023-12-15T17:28:26.405Z,11.52
2023-12-15T17:31:32.227Z,10.97
2023-12-15T17:34:36.535Z,10.30
2023-12-15T17:37:39.614Z,11.75
2023-12-15T17:40:42.472Z,11.20
2023-12-15T17:43:45.606Z,10.83
2023-12-15T17:46:48.382Z,10.80
2023-12-15T17:49:52.780Z,9.68
2023-12-15T17:52:55.539Z,10.07
2023-12-15T17:55:58.696Z,11.07
2023-12-15T17:59:01.404Z,10.27
2023-12-15T18:02:06.703Z,10.27
2023-12-15T18:05:11.277Z,9.98
2023-12-15T18:08:14.176Z,11.15
2023-12-15T18:11:21.168Z,11.47
2023-12-15T18:14:24.227Z,10.83
2023-12-15T18:17:27.016Z,12.30
2023-12-15T18:20:31.307Z,10.63
2023-12-15T18:23:34.005Z,10.90
2023-12-15T18:26:38.311Z,10.43
2023-12-15T18:29:41.029Z,10.23
2023-12-15T18:32:44.762Z,10.73
2023-12-15T18:35:48.937Z,11.20
2023-12-15T18:38:51.795Z,11.45
2023-12-15T18:41:54.565Z,10.70
2023-12-15T18:44:57.442Z,10.90
2023-12-15T18:48:00.296Z,10.20
2023-12-15T18:51:05.056Z,9.95
2023-12-15T18:54:09.856Z,9.88
2023-12-15T18:57:13.613Z,10.47
2023-12-15T19:00:19.875Z,11.23
2023-12-15T19:03:26.740Z,9.95
2023-12-15T19:06:30.957Z,10.10
2023-12-15T19:09:34.161Z,11.35
2023-12-15T19:12:37.828Z,10.80
2023-12-15T19:15:40.634Z,11.70
2023-12-15T19:18:44.883Z,11.40
2023-12-15T19:21:49.031Z,11.00
2023-12-15T19:24:55.680Z,10.80
2023-12-15T19:27:58.678Z,11.37
2023-12-15T19:31:01.854Z,10.03
2023-12-15T19:34:04.983Z,10.30
2023-12-15T19:37:09.355Z,10.25
2023-12-15T19:40:14.343Z,11.75
2023-12-15T19:43:17.170Z,9.90
2023-12-15T19:46:21.809Z,10.43
2023-12-15T19:49:26.101Z,10.60
2023-12-15T19:52:32.102Z,10.43
2023-12-15T19:55:37.375Z,10.75
2023-12-15T19:58:40.222Z,10.40
2023-12-15T20:01:43.035Z,10.37
2023-12-15T20:04:46.533Z,10.57
2023-12-15T20:07:51.048Z,10.30
2023-12-15T20:10:54.069Z,10.75
2023-12-15T20:13:56.909Z,10.60
2023-12-15T20:16:59.830Z,10.20
2023-12-15T20:20:02.709Z,9.65
2023-12-15T20:23:07.060Z,10.00
2023-12-15T20:26:10.466Z,9.40
2023-12-15T20:29:14.530Z,11.43
2023-12-15T20:32:17.237Z,11.17
2023-12-15T20:35:20.437Z,10.38
2023-12-15T20:38:24.717Z,9.48
2023-12-15T20:41:27.708Z,10.05
2023-12-15T20:44:30.455Z,9.60
2023-12-15T20:47:36.614Z,10.50
2023-12-15T20:50:39.609Z,9.48
2023-12-15T20:53:43.853Z,9.82
2023-12-15T20:56:46.680Z,8.48
2023-12-15T20:59:49.556Z,9.37
2023-12-15T21:02:52.308Z,9.53
2023-12-15T21:05:55.322Z,9.32
2023-12-15T21:09:00.113Z,8.95
2023-12-15T21:12:03.989Z,8.70
2023-12-15T21:15:07.685Z,8.20
2023-12-15T21:18:12.756Z,9.33
2023-12-15T21:21:15.562Z,7.95
2023-12-15T21:24:21.595Z,9.25
2023-12-15T21:27:24.379Z,8.85
2023-12-15T21:30:30.385Z,9.80
2023-12-15T21:33:33.142Z,9.10
2023-12-15T21:36:36.026Z,9.32
2023-12-15T21:39:42.112Z,10.65
2023-12-15T21:42:45.230Z,9.15
2023-12-15T21:45:47.952Z,8.73
2023-12-15T21:48:50.917Z,7.93
2023-12-15T21:51:53.916Z,7.22
2023-12-15T21:54:58.164Z,8.27
2023-12-15T21:58:01.178Z,7.65
2023-12-15T22:01:04.118Z,7.73
2023-12-15T22:04:08.891Z,8.10
2023-12-15T22:07:11.780Z,8.43
2023-12-15T22:10:16.548Z,8.52
2023-12-15T22:13:19.929Z,7.25
2023-12-15T22:16:22.890Z,6.93
2023-12-15T22:19:26.108Z,7.70
2023-12-15T22:22:29.128Z,7.85
2023-12-15T22:25:33.293Z,6.05
2023-12-15T22:28:36.238Z,7.00
2023-12-15T22:31:43.224Z,7.20
2023-12-15T22:34:47.642Z,7.13
2023-12-15T22:37:50.397Z,7.43
2023-12-15T22:40:54.607Z,8.05
2023-12-15T22:43:57.319Z,7.05
2023-12-15T22:47:00.217Z,6.57
2023-12-15T22:50:04.383Z,6.30
2023-12-15T22:53:07.558Z,6.00
2023-12-15T22:56:12.587Z,6.40
2023-12-15T22:59:15.760Z,6.65
2023-12-15T23:02:18.505Z,6.37
2023-12-15T23:05:21.534Z,7.23
2023-12-15T23:08:24.307Z,6.80
2023-12-15T23:11:28.612Z,6.93
2023-12-15T23:14:31.390Z,6.90
2023-12-15T23:17:34.661Z,7.03
2023-12-15T23:20:37.832Z,6.67
2023-12-15T23:23:40.700Z,7.07
2023-12-15T23:26:44.756Z,6.47
2023-12-15T23:29:47.677Z,6.90
2023-12-15T23:32:50.511Z,6.72
2023-12-15T23:35:53.382Z,7.28
2023-12-15T23:38:56.672Z,7.03
2023-12-15T23:42:00.872Z,7.10
2023-12-15T23:45:04.167Z,7.30
2023-12-15T23:48:07.313Z,7.53
2023-12-15T23:51:10.215Z,6.60
2023-12-15T23:54:13.201Z,6.60
2023-12-15T23:57:17.306Z,6.10
